sensor_id;sensor_type;location;lat;lon;timestamp;pressure;altitude;pressure_sealevel;temperature;humidity
6532;BME280;3299;42.004;24.868;2023-09-19T00:01:07;98656.34;;;17.17;82.79
6532;BME280;3299;42.004;24.868;2023-09-19T00:03:37;98606.00;;;16.86;83.88
6532;BME280;3299;42.004;24.868;2023-09-19T00:06:04;98651.00;;;16.99;84.68
6532;BME280;3299;42.004;24.868;2023-09-19T00:08:30;98653.34;;;16.93;85.71
6532;BME280;3299;42.004;24.868;2023-09-19T00:10:56;98613.19;;;16.65;86.76
6532;BME280;3299;42.004;24.868;2023-09-19T00:13:29;98606.03;;;16.58;87.13
6532;BME280;3299;42.004;24.868;2023-09-19T00:15:56;98624.63;;;16.74;87.06
6532;BME280;3299;42.004;24.868;2023-09-19T00:18:24;98614.28;;;16.63;87.42
6532;BME280;3299;42.004;24.868;2023-09-19T00:20:57;98638.22;;;16.87;86.52
6532;BME280;3299;42.004;24.868;2023-09-19T00:23:22;98628.84;;;16.94;85.59
6532;BME280;3299;42.004;24.868;2023-09-19T00:25:48;98615.81;;;16.75;86.47
6532;BME280;3299;42.004;24.868;2023-09-19T00:28:13;98639.19;;;16.86;86.38
6532;BME280;3299;42.004;24.868;2023-09-19T00:30:42;98621.72;;;16.77;85.69
6532;BME280;3299;42.004;24.868;2023-09-19T00:33:08;98645.50;;;16.83;86.27
6532;BME280;3299;42.004;24.868;2023-09-19T00:35:33;98636.56;;;16.86;85.80
6532;BME280;3299;42.004;24.868;2023-09-19T00:37:59;98603.56;;;16.66;85.57
6532;BME280;3299;42.004;24.868;2023-09-19T00:40:24;98635.47;;;16.79;85.93
6532;BME280;3299;42.004;24.868;2023-09-19T00:42:51;98647.28;;;16.92;85.86
6532;BME280;3299;42.004;24.868;2023-09-19T00:45:17;98633.41;;;16.92;85.79
6532;BME280;3299;42.004;24.868;2023-09-19T00:47:50;98616.34;;;16.78;85.73
6532;BME280;3299;42.004;24.868;2023-09-19T00:50:17;98615.94;;;16.83;85.52
6532;BME280;3299;42.004;24.868;2023-09-19T00:52:46;98618.69;;;16.81;85.52
6532;BME280;3299;42.004;24.868;2023-09-19T00:55:12;98611.69;;;16.72;85.69
6532;BME280;3299;42.004;24.868;2023-09-19T00:57:41;98592.84;;;16.50;86.18
6532;BME280;3299;42.004;24.868;2023-09-19T01:00:08;98620.75;;;16.68;86.18
6532;BME280;3299;42.004;24.868;2023-09-19T01:02:37;98592.84;;;16.50;86.23
6532;BME280;3299;42.004;24.868;2023-09-19T01:05:03;98612.91;;;16.49;86.61
6532;BME280;3299;42.004;24.868;2023-09-19T01:07:32;98637.41;;;16.58;87.61
6532;BME280;3299;42.004;24.868;2023-09-19T01:09:59;98638.78;;;16.62;87.09
6532;BME280;3299;42.004;24.868;2023-09-19T01:15:55;98630.78;;;16.44;88.48
6532;BME280;3299;42.004;24.868;2023-09-19T01:21:22;98634.09;;;16.46;89.14
6532;BME280;3299;42.004;24.868;2023-09-19T01:31:45;98606.56;;;16.33;89.54
6532;BME280;3299;42.004;24.868;2023-09-19T01:34:12;98620.28;;;16.35;89.72
6532;BME280;3299;42.004;24.868;2023-09-19T01:36:38;98601.59;;;16.30;89.83
6532;BME280;3299;42.004;24.868;2023-09-19T01:39:09;98581.53;;;16.11;90.14
6532;BME280;3299;42.004;24.868;2023-09-19T01:45:01;98596.78;;;16.35;88.45
6532;BME280;3299;42.004;24.868;2023-09-19T01:47:37;98573.53;;;16.13;89.74
6532;BME280;3299;42.004;24.868;2023-09-19T01:50:20;98606.25;;;16.36;89.70
6532;BME280;3299;42.004;24.868;2023-09-19T01:53:21;98612.06;;;16.39;89.67
6532;BME280;3299;42.004;24.868;2023-09-19T01:55:48;98578.91;;;16.11;89.39
6532;BME280;3299;42.004;24.868;2023-09-19T01:58:21;98609.03;;;16.34;89.67
6532;BME280;3299;42.004;24.868;2023-09-19T02:00:51;98601.47;;;16.31;89.44
6532;BME280;3299;42.004;24.868;2023-09-19T02:03:20;98606.94;;;16.28;89.17
6532;BME280;3299;42.004;24.868;2023-09-19T02:05:51;98581.91;;;16.07;89.94
6532;BME280;3299;42.004;24.868;2023-09-19T02:08:19;98585.22;;;16.09;90.66
6532;BME280;3299;42.004;24.868;2023-09-19T02:10:45;98594.13;;;15.97;91.38
6532;BME280;3299;42.004;24.868;2023-09-19T02:13:19;98610.03;;;15.94;92.84
6532;BME280;3299;42.004;24.868;2023-09-19T02:15:45;98599.59;;;15.84;93.63
6532;BME280;3299;42.004;24.868;2023-09-19T02:18:11;98576.13;;;15.45;95.39
6532;BME280;3299;42.004;24.868;2023-09-19T02:20:37;98607.09;;;15.78;94.43
6532;BME280;3299;42.004;24.868;2023-09-19T02:23:03;98576.41;;;15.61;94.52
6532;BME280;3299;42.004;24.868;2023-09-19T02:25:28;98574.88;;;15.49;94.67
6532;BME280;3299;42.004;24.868;2023-09-19T02:27:54;98562.66;;;15.49;94.60
6532;BME280;3299;42.004;24.868;2023-09-19T02:30:19;98554.41;;;15.44;94.53
6532;BME280;3299;42.004;24.868;2023-09-19T02:32:51;98587.72;;;15.71;95.08
6532;BME280;3299;42.004;24.868;2023-09-19T02:35:16;98565.75;;;15.64;94.73
6532;BME280;3299;42.004;24.868;2023-09-19T02:37:45;98549.75;;;15.48;95.67
6532;BME280;3299;42.004;24.868;2023-09-19T02:40:10;98570.31;;;15.71;95.00
6532;BME280;3299;42.004;24.868;2023-09-19T02:42:52;98586.94;;;15.80;95.05
6532;BME280;3299;42.004;24.868;2023-09-19T02:45:18;98569.03;;;15.66;94.90
6532;BME280;3299;42.004;24.868;2023-09-19T02:47:45;98569.22;;;15.44;96.25
6532;BME280;3299;42.004;24.868;2023-09-19T02:50:11;98596.88;;;15.56;96.62
6532;BME280;3299;42.004;24.868;2023-09-19T02:52:38;98562.91;;;15.46;95.84
6532;BME280;3299;42.004;24.868;2023-09-19T02:55:03;98554.81;;;15.40;95.76
6532;BME280;3299;42.004;24.868;2023-09-19T02:57:31;98591.38;;;15.59;95.87
6532;BME280;3299;42.004;24.868;2023-09-19T02:59:59;98568.69;;;15.50;95.87
6532;BME280;3299;42.004;24.868;2023-09-19T03:02:26;98550.00;;;15.35;96.07
6532;BME280;3299;42.004;24.868;2023-09-19T03:04:53;98562.34;;;15.43;96.08
6532;BME280;3299;42.004;24.868;2023-09-19T03:07:18;98588.91;;;15.57;96.56
6532;BME280;3299;42.004;24.868;2023-09-19T03:09:44;98560.19;;;15.27;97.81
6532;BME280;3299;42.004;24.868;2023-09-19T03:12:10;98573.81;;;15.31;98.02
6532;BME280;3299;42.004;24.868;2023-09-19T03:14:36;98571.09;;;15.32;98.59
6532;BME280;3299;42.004;24.868;2023-09-19T03:17:01;98587.31;;;15.36;99.32
6532;BME280;3299;42.004;24.868;2023-09-19T03:19:30;98570.75;;;15.26;99.16
6532;BME280;3299;42.004;24.868;2023-09-19T03:21:58;98584.34;;;15.50;98.28
6532;BME280;3299;42.004;24.868;2023-09-19T03:24:24;98576.13;;;15.45;97.12
6532;BME280;3299;42.004;24.868;2023-09-19T03:26:49;98577.22;;;15.52;96.89
6532;BME280;3299;42.004;24.868;2023-09-19T03:29:14;98583.31;;;15.62;96.88
6532;BME280;3299;42.004;24.868;2023-09-19T03:31:42;98577.25;;;15.61;95.26
6532;BME280;3299;42.004;24.868;2023-09-19T03:34:08;98559.94;;;15.51;94.75
6532;BME280;3299;42.004;24.868;2023-09-19T03:36:34;98574.78;;;15.60;94.74
6532;BME280;3299;42.004;24.868;2023-09-19T03:38:59;98554.19;;;15.57;94.33
6532;BME280;3299;42.004;24.868;2023-09-19T03:41:25;98586.75;;;15.72;94.34
6532;BME280;3299;42.004;24.868;2023-09-19T03:43:50;98564.78;;;15.65;94.59
6532;BME280;3299;42.004;24.868;2023-09-19T03:46:15;98554.44;;;15.54;94.53
6532;BME280;3299;42.004;24.868;2023-09-19T03:48:41;98586.41;;;15.86;94.01
6532;BME280;3299;42.004;24.868;2023-09-19T03:51:07;98563.56;;;15.69;94.41
6532;BME280;3299;42.004;24.868;2023-09-19T03:53:33;98552.84;;;15.72;93.80
6532;BME280;3299;42.004;24.868;2023-09-19T03:55:58;98561.94;;;15.77;94.05
6532;BME280;3299;42.004;24.868;2023-09-19T03:58:25;98573.78;;;15.91;93.93
6532;BME280;3299;42.004;24.868;2023-09-19T04:00:50;98552.47;;;15.76;93.97
6532;BME280;3299;42.004;24.868;2023-09-19T04:03:16;98589.97;;;15.85;93.57
6532;BME280;3299;42.004;24.868;2023-09-19T04:05:49;98572.91;;;15.71;93.17
6532;BME280;3299;42.004;24.868;2023-09-19T04:08:14;98552.25;;;15.59;92.17
6532;BME280;3299;42.004;24.868;2023-09-19T04:10:43;98589.03;;;15.86;92.48
6532;BME280;3299;42.004;24.868;2023-09-19T04:13:11;98552.25;;;15.49;93.60
6532;BME280;3299;42.004;24.868;2023-09-19T04:15:36;98587.81;;;15.60;94.15
6532;BME280;3299;42.004;24.868;2023-09-19T04:18:03;98584.69;;;15.66;94.92
6532;BME280;3299;42.004;24.868;2023-09-19T04:20:28;98575.63;;;15.60;95.46
6532;BME280;3299;42.004;24.868;2023-09-19T04:22:54;98574.63;;;15.52;95.97
6532;BME280;3299;42.004;24.868;2023-09-19T04:25:20;98581.41;;;15.64;95.09
6532;BME280;3299;42.004;24.868;2023-09-19T04:27:46;98586.31;;;15.67;94.45
6532;BME280;3299;42.004;24.868;2023-09-19T04:30:11;98599.13;;;15.70;94.81
6532;BME280;3299;42.004;24.868;2023-09-19T04:32:41;98572.59;;;15.65;93.45
6532;BME280;3299;42.004;24.868;2023-09-19T04:35:08;98605.59;;;15.75;93.58
6532;BME280;3299;42.004;24.868;2023-09-19T04:37:38;98574.38;;;15.64;93.56
6532;BME280;3299;42.004;24.868;2023-09-19T04:40:06;98578.66;;;15.65;93.37
6532;BME280;3299;42.004;24.868;2023-09-19T04:42:35;98559.09;;;15.50;93.39
6532;BME280;3299;42.004;24.868;2023-09-19T04:45:01;98593.63;;;15.73;93.28
6532;BME280;3299;42.004;24.868;2023-09-19T04:47:26;98593.22;;;15.68;93.71
6532;BME280;3299;42.004;24.868;2023-09-19T04:49:51;98598.84;;;15.73;93.40
6532;BME280;3299;42.004;24.868;2023-09-19T04:52:19;98593.94;;;15.79;92.73
6532;BME280;3299;42.004;24.868;2023-09-19T04:54:45;98592.72;;;15.83;92.92
6532;BME280;3299;42.004;24.868;2023-09-19T04:57:11;98562.69;;;15.59;93.05
6532;BME280;3299;42.004;24.868;2023-09-19T04:59:38;98578.09;;;15.62;93.49
6532;BME280;3299;42.004;24.868;2023-09-19T05:02:04;98576.78;;;15.47;93.96
6532;BME280;3299;42.004;24.868;2023-09-19T05:04:30;98609.34;;;15.52;94.42
6532;BME280;3299;42.004;24.868;2023-09-19T05:06:55;98598.13;;;15.61;93.96
6532;BME280;3299;42.004;24.868;2023-09-19T05:09:20;98564.00;;;15.44;93.09
6532;BME280;3299;42.004;24.868;2023-09-19T05:11:46;98572.00;;;15.52;92.48
6532;BME280;3299;42.004;24.868;2023-09-19T05:14:11;98575.59;;;15.51;93.18
6532;BME280;3299;42.004;24.868;2023-09-19T05:16:37;98565.84;;;15.53;93.31
6532;BME280;3299;42.004;24.868;2023-09-19T05:19:02;98564.09;;;15.63;92.27
6532;BME280;3299;42.004;24.868;2023-09-19T05:21:27;98547.47;;;15.64;92.03
6532;BME280;3299;42.004;24.868;2023-09-19T05:23:56;98590.69;;;15.96;91.58
6532;BME280;3299;42.004;24.868;2023-09-19T05:26:21;98560.59;;;15.92;90.95
6532;BME280;3299;42.004;24.868;2023-09-19T05:28:47;98565.00;;;16.01;90.39
6532;BME280;3299;42.004;24.868;2023-09-19T05:31:15;98587.56;;;16.12;89.43
6532;BME280;3299;42.004;24.868;2023-09-19T05:33:41;98568.59;;;16.00;89.99
6532;BME280;3299;42.004;24.868;2023-09-19T05:36:07;98566.09;;;15.99;89.99
6532;BME280;3299;42.004;24.868;2023-09-19T05:38:36;98568.84;;;16.07;89.79
6532;BME280;3299;42.004;24.868;2023-09-19T05:41:02;98558.69;;;16.04;89.40
6532;BME280;3299;42.004;24.868;2023-09-19T05:43:27;98571.34;;;16.08;89.62
6532;BME280;3299;42.004;24.868;2023-09-19T05:45:53;98584.25;;;16.10;89.52
6532;BME280;3299;42.004;24.868;2023-09-19T05:48:21;98587.44;;;16.23;89.50
6532;BME280;3299;42.004;24.868;2023-09-19T05:50:47;98597.25;;;16.40;88.44
6532;BME280;3299;42.004;24.868;2023-09-19T05:53:14;98586.25;;;16.46;88.12
6532;BME280;3299;42.004;24.868;2023-09-19T05:55:40;98567.41;;;16.52;87.06
6532;BME280;3299;42.004;24.868;2023-09-19T05:58:05;98575.78;;;16.65;86.90
6532;BME280;3299;42.004;24.868;2023-09-19T06:00:31;98568.66;;;16.67;86.37
6532;BME280;3299;42.004;24.868;2023-09-19T06:02:58;98565.34;;;16.84;85.19
6532;BME280;3299;42.004;24.868;2023-09-19T06:05:25;98593.47;;;17.09;84.88
6532;BME280;3299;42.004;24.868;2023-09-19T06:07:52;98594.28;;;17.19;84.76
6532;BME280;3299;42.004;24.868;2023-09-19T06:10:18;98601.22;;;17.37;84.39
6532;BME280;3299;42.004;24.868;2023-09-19T06:12:46;98584.44;;;17.49;83.38
6532;BME280;3299;42.004;24.868;2023-09-19T06:15:15;98603.97;;;17.82;81.65
6532;BME280;3299;42.004;24.868;2023-09-19T06:17:47;98590.28;;;17.97;80.23
6532;BME280;3299;42.004;24.868;2023-09-19T06:20:14;98568.28;;;18.08;78.47
6532;BME280;3299;42.004;24.868;2023-09-19T06:22:41;98562.84;;;18.19;78.33
6532;BME280;3299;42.004;24.868;2023-09-19T06:25:07;98599.25;;;18.57;77.48
6532;BME280;3299;42.004;24.868;2023-09-19T06:27:33;98574.06;;;18.64;75.72
6532;BME280;3299;42.004;24.868;2023-09-19T06:30:01;98579.09;;;18.75;75.11
6532;BME280;3299;42.004;24.868;2023-09-19T06:32:27;98558.72;;;18.69;75.06
6532;BME280;3299;42.004;24.868;2023-09-19T06:34:53;98586.28;;;18.90;74.65
6532;BME280;3299;42.004;24.868;2023-09-19T06:37:23;98556.56;;;18.82;73.99
6532;BME280;3299;42.004;24.868;2023-09-19T06:39:49;98598.69;;;19.06;73.91
6532;BME280;3299;42.004;24.868;2023-09-19T06:42:16;98592.09;;;19.02;73.13
6532;BME280;3299;42.004;24.868;2023-09-19T06:44:43;98551.97;;;18.84;72.19
6532;BME280;3299;42.004;24.868;2023-09-19T06:47:08;98589.50;;;19.10;72.76
6532;BME280;3299;42.004;24.868;2023-09-19T06:49:35;98566.59;;;19.12;72.94
6532;BME280;3299;42.004;24.868;2023-09-19T06:52:00;98580.88;;;19.35;71.52
6532;BME280;3299;42.004;24.868;2023-09-19T06:54:26;98562.50;;;19.35;71.85
6532;BME280;3299;42.004;24.868;2023-09-19T06:56:56;98571.78;;;19.55;71.02
6532;BME280;3299;42.004;24.868;2023-09-19T06:59:24;98543.03;;;19.45;71.36
6532;BME280;3299;42.004;24.868;2023-09-19T07:01:49;98576.97;;;19.80;70.94
6532;BME280;3299;42.004;24.868;2023-09-19T07:04:16;98550.69;;;19.72;71.27
6532;BME280;3299;42.004;24.868;2023-09-19T07:06:44;98571.66;;;20.06;70.54
6532;BME280;3299;42.004;24.868;2023-09-19T07:09:11;98568.06;;;20.15;72.41
6532;BME280;3299;42.004;24.868;2023-09-19T07:11:37;98586.84;;;20.28;73.30
6532;BME280;3299;42.004;24.868;2023-09-19T07:14:03;98555.59;;;20.09;74.94
6532;BME280;3299;42.004;24.868;2023-09-19T07:16:28;98588.00;;;20.41;73.82
6532;BME280;3299;42.004;24.868;2023-09-19T07:18:54;98571.88;;;20.28;74.88
6532;BME280;3299;42.004;24.868;2023-09-19T07:21:20;98553.03;;;20.33;74.71
6532;BME280;3299;42.004;24.868;2023-09-19T07:23:46;98574.72;;;20.59;74.67
6532;BME280;3299;42.004;24.868;2023-09-19T07:26:12;98573.56;;;20.69;75.75
6532;BME280;3299;42.004;24.868;2023-09-19T07:28:37;98570.28;;;20.75;75.24
6532;BME280;3299;42.004;24.868;2023-09-19T07:31:03;98542.84;;;20.70;74.91
6532;BME280;3299;42.004;24.868;2023-09-19T07:33:35;98550.09;;;20.92;73.40
6532;BME280;3299;42.004;24.868;2023-09-19T07:36:01;98557.97;;;21.16;72.27
6532;BME280;3299;42.004;24.868;2023-09-19T07:38:26;98553.34;;;21.18;72.12
6532;BME280;3299;42.004;24.868;2023-09-19T07:40:52;98536.78;;;21.01;71.89
6532;BME280;3299;42.004;24.868;2023-09-19T07:43:17;98521.63;;;21.03;72.15
6532;BME280;3299;42.004;24.868;2023-09-19T07:45:43;98525.25;;;21.02;72.20
6532;BME280;3299;42.004;24.868;2023-09-19T07:48:08;98534.47;;;21.06;70.91
6532;BME280;3299;42.004;24.868;2023-09-19T07:50:40;98526.50;;;21.22;70.20
6532;BME280;3299;42.004;24.868;2023-09-19T07:53:08;98546.66;;;21.54;69.97
6532;BME280;3299;42.004;24.868;2023-09-19T07:55:34;98549.56;;;21.75;69.49
6532;BME280;3299;42.004;24.868;2023-09-19T07:57:59;98544.47;;;21.73;68.66
6532;BME280;3299;42.004;24.868;2023-09-19T08:00:25;98522.88;;;21.78;67.84
6532;BME280;3299;42.004;24.868;2023-09-19T08:02:50;98533.47;;;22.00;68.22
6532;BME280;3299;42.004;24.868;2023-09-19T08:05:17;98529.06;;;22.15;67.21
6532;BME280;3299;42.004;24.868;2023-09-19T08:07:46;98531.25;;;22.12;65.72
6532;BME280;3299;42.004;24.868;2023-09-19T08:10:15;98549.38;;;22.37;65.91
6532;BME280;3299;42.004;24.868;2023-09-19T08:12:44;98515.81;;;22.01;65.53
6532;BME280;3299;42.004;24.868;2023-09-19T08:15:18;98516.19;;;21.98;65.91
6532;BME280;3299;42.004;24.868;2023-09-19T08:17:45;98505.88;;;22.11;66.09
6532;BME280;3299;42.004;24.868;2023-09-19T08:20:11;98530.28;;;22.35;66.01
6532;BME280;3299;42.004;24.868;2023-09-19T08:22:53;98512.25;;;22.47;64.58
6532;BME280;3299;42.004;24.868;2023-09-19T08:25:20;98504.56;;;22.60;64.23
6532;BME280;3299;42.004;24.868;2023-09-19T08:27:47;98518.47;;;22.68;63.37
6532;BME280;3299;42.004;24.868;2023-09-19T08:30:14;98492.06;;;22.54;63.40
6532;BME280;3299;42.004;24.868;2023-09-19T08:32:40;98502.44;;;22.55;63.04
6532;BME280;3299;42.004;24.868;2023-09-19T08:35:08;98489.66;;;22.67;63.61
6532;BME280;3299;42.004;24.868;2023-09-19T08:37:34;98484.41;;;22.81;63.36
6532;BME280;3299;42.004;24.868;2023-09-19T08:40:00;98512.31;;;23.13;61.57
6532;BME280;3299;42.004;24.868;2023-09-19T08:42:25;98480.34;;;23.08;61.42
6532;BME280;3299;42.004;24.868;2023-09-19T08:44:50;98497.75;;;23.31;60.78
6532;BME280;3299;42.004;24.868;2023-09-19T08:47:34;98493.66;;;23.43;61.40
6532;BME280;3299;42.004;24.868;2023-09-19T08:50:14;98497.75;;;23.46;61.36
6532;BME280;3299;42.004;24.868;2023-09-19T08:52:46;98492.09;;;23.49;60.03
6532;BME280;3299;42.004;24.868;2023-09-19T08:55:13;98494.03;;;23.40;61.40
6532;BME280;3299;42.004;24.868;2023-09-19T08:57:45;98485.56;;;23.30;61.00
6532;BME280;3299;42.004;24.868;2023-09-19T09:00:14;98449.13;;;23.26;61.15
6532;BME280;3299;42.004;24.868;2023-09-19T09:02:43;98467.78;;;23.39;59.93
6532;BME280;3299;42.004;24.868;2023-09-19T09:05:09;98487.44;;;23.51;59.10
6532;BME280;3299;42.004;24.868;2023-09-19T09:07:38;98450.13;;;23.39;58.90
6532;BME280;3299;42.004;24.868;2023-09-19T09:10:04;98460.84;;;23.52;58.78
6532;BME280;3299;42.004;24.868;2023-09-19T09:12:30;98488.00;;;23.81;57.05
6532;BME280;3299;42.004;24.868;2023-09-19T09:14:56;98469.06;;;23.78;57.01
6532;BME280;3299;42.004;24.868;2023-09-19T09:17:23;98450.78;;;23.77;57.31
6532;BME280;3299;42.004;24.868;2023-09-19T09:19:52;98452.41;;;23.92;56.79
6532;BME280;3299;42.004;24.868;2023-09-19T09:22:18;98455.16;;;24.05;56.78
6532;BME280;3299;42.004;24.868;2023-09-19T09:24:58;98460.78;;;24.17;56.55
6532;BME280;3299;42.004;24.868;2023-09-19T09:27:24;98456.56;;;24.22;56.02
6532;BME280;3299;42.004;24.868;2023-09-19T09:29:51;98457.69;;;24.34;55.43
6532;BME280;3299;42.004;24.868;2023-09-19T09:34:58;98475.97;;;24.56;54.23
6532;BME280;3299;42.004;24.868;2023-09-19T09:37:24;98449.47;;;24.50;53.80
6532;BME280;3299;42.004;24.868;2023-09-19T09:47:48;98437.97;;;24.58;52.47
6532;BME280;3299;42.004;24.868;2023-09-19T09:52:57;98442.19;;;24.79;53.00
6532;BME280;3299;42.004;24.868;2023-09-19T09:56:00;98444.31;;;24.90;52.52
6532;BME280;3299;42.004;24.868;2023-09-19T09:58:27;98455.78;;;25.04;51.34
6532;BME280;3299;42.004;24.868;2023-09-19T10:00:58;98454.59;;;25.06;51.09
6532;BME280;3299;42.004;24.868;2023-09-19T10:03:40;98442.38;;;25.05;51.07
6532;BME280;3299;42.004;24.868;2023-09-19T10:06:11;98444.06;;;25.19;50.87
6532;BME280;3299;42.004;24.868;2023-09-19T10:09:09;98419.19;;;25.14;51.17
6532;BME280;3299;42.004;24.868;2023-09-19T10:11:44;98412.53;;;25.24;51.26
6532;BME280;3299;42.004;24.868;2023-09-19T10:14:16;98437.31;;;25.44;50.30
6532;BME280;3299;42.004;24.868;2023-09-19T10:16:47;98409.38;;;25.42;49.83
6532;BME280;3299;42.004;24.868;2023-09-19T10:19:30;98413.72;;;25.62;49.91
6532;BME280;3299;42.004;24.868;2023-09-19T10:22:01;98399.84;;;25.73;49.12
6532;BME280;3299;42.004;24.868;2023-09-19T10:24:28;98414.13;;;25.72;48.43
6532;BME280;3299;42.004;24.868;2023-09-19T10:26:54;98418.53;;;25.39;49.19
6532;BME280;3299;42.004;24.868;2023-09-19T10:29:21;98413.47;;;25.51;48.96
6532;BME280;3299;42.004;24.868;2023-09-19T10:31:47;98406.72;;;25.48;48.55
6532;BME280;3299;42.004;24.868;2023-09-19T10:34:17;98438.25;;;25.84;48.72
6532;BME280;3299;42.004;24.868;2023-09-19T10:36:46;98413.63;;;26.09;47.45
6532;BME280;3299;42.004;24.868;2023-09-19T10:39:15;98426.50;;;26.45;47.92
6532;BME280;3299;42.004;24.868;2023-09-19T10:41:49;98393.25;;;26.55;46.11
6532;BME280;3299;42.004;24.868;2023-09-19T10:44:23;98399.94;;;26.77;44.86
6532;BME280;3299;42.004;24.868;2023-09-19T10:46:49;98401.16;;;26.81;44.93
6532;BME280;3299;42.004;24.868;2023-09-19T10:49:16;98408.50;;;26.92;45.16
6532;BME280;3299;42.004;24.868;2023-09-19T10:51:44;98377.06;;;26.76;45.13
6532;BME280;3299;42.004;24.868;2023-09-19T10:54:13;98373.63;;;26.63;45.16
6532;BME280;3299;42.004;24.868;2023-09-19T10:56:50;98390.19;;;26.32;46.37
6532;BME280;3299;42.004;24.868;2023-09-19T10:59:21;98371.78;;;26.24;46.22
6532;BME280;3299;42.004;24.868;2023-09-19T11:01:52;98383.22;;;26.31;45.66
6532;BME280;3299;42.004;24.868;2023-09-19T11:04:29;98374.44;;;26.50;45.87
6532;BME280;3299;42.004;24.868;2023-09-19T11:14:51;98350.78;;;27.12;43.39
6532;BME280;3299;42.004;24.868;2023-09-19T11:30:48;98357.25;;;27.42;43.62
6532;BME280;3299;42.004;24.868;2023-09-19T11:36:07;98362.31;;;27.88;41.71
6532;BME280;3299;42.004;24.868;2023-09-19T11:49:16;98306.66;;;28.35;40.09
6532;BME280;3299;42.004;24.868;2023-09-19T11:51:45;98333.34;;;28.71;39.84
6532;BME280;3299;42.004;24.868;2023-09-19T11:54:13;98306.84;;;28.58;40.78
6532;BME280;3299;42.004;24.868;2023-09-19T11:56:44;98327.66;;;28.86;40.34
6532;BME280;3299;42.004;24.868;2023-09-19T11:59:11;98315.66;;;28.77;40.42
6532;BME280;3299;42.004;24.868;2023-09-19T12:01:39;98317.22;;;28.84;39.47
6532;BME280;3299;42.004;24.868;2023-09-19T12:04:11;98326.97;;;28.90;39.22
6532;BME280;3299;42.004;24.868;2023-09-19T12:06:37;98309.66;;;28.63;39.33
6532;BME280;3299;42.004;24.868;2023-09-19T12:09:04;98324.84;;;28.81;39.15
6532;BME280;3299;42.004;24.868;2023-09-19T12:11:32;98315.28;;;28.91;40.40
6532;BME280;3299;42.004;24.868;2023-09-19T12:13:58;98312.97;;;28.95;38.74
6532;BME280;3299;42.004;24.868;2023-09-19T12:16:26;98305.22;;;28.57;38.51
6532;BME280;3299;42.004;24.868;2023-09-19T12:18:55;98299.88;;;28.39;40.19
6532;BME280;3299;42.004;24.868;2023-09-19T12:27:00;98298.34;;;28.86;40.01
6532;BME280;3299;42.004;24.868;2023-09-19T12:29:29;98281.47;;;28.92;39.39
6532;BME280;3299;42.004;24.868;2023-09-19T12:31:57;98291.50;;;29.08;39.27
6532;BME280;3299;42.004;24.868;2023-09-19T12:34:27;98286.50;;;29.00;38.85
6532;BME280;3299;42.004;24.868;2023-09-19T12:39:45;98270.66;;;29.05;39.49
6532;BME280;3299;42.004;24.868;2023-09-19T12:42:22;98274.81;;;29.30;38.61
6532;BME280;3299;42.004;24.868;2023-09-19T12:44:50;98268.25;;;29.44;38.05
6532;BME280;3299;42.004;24.868;2023-09-19T12:47:21;98295.97;;;29.73;37.41
6532;BME280;3299;42.004;24.868;2023-09-19T12:52:43;98299.00;;;29.88;37.23
6532;BME280;3299;42.004;24.868;2023-09-19T12:55:26;98283.69;;;29.95;37.27
6532;BME280;3299;42.004;24.868;2023-09-19T13:00:21;98294.38;;;30.06;36.30
6532;BME280;3299;42.004;24.868;2023-09-19T13:03:12;98290.84;;;29.71;36.96
6532;BME280;3299;42.004;24.868;2023-09-19T13:08:30;98288.19;;;29.71;37.87
6532;BME280;3299;42.004;24.868;2023-09-19T13:11:13;98251.34;;;29.50;37.97
6532;BME280;3299;42.004;24.868;2023-09-19T13:13:45;98252.09;;;28.98;37.79
6532;BME280;3299;42.004;24.868;2023-09-19T13:16:13;98231.88;;;28.91;38.56
6532;BME280;3299;42.004;24.868;2023-09-19T13:18:54;98254.69;;;29.05;38.72
6532;BME280;3299;42.004;24.868;2023-09-19T13:21:34;98235.09;;;28.99;39.42
6532;BME280;3299;42.004;24.868;2023-09-19T13:24:22;98264.56;;;29.16;39.28
6532;BME280;3299;42.004;24.868;2023-09-19T13:26:53;98229.50;;;29.01;39.55
6532;BME280;3299;42.004;24.868;2023-09-19T13:29:18;98233.69;;;28.97;38.71
6532;BME280;3299;42.004;24.868;2023-09-19T13:31:51;98230.78;;;28.80;39.30
6532;BME280;3299;42.004;24.868;2023-09-19T13:34:19;98260.38;;;28.90;40.30
6532;BME280;3299;42.004;24.868;2023-09-19T13:36:45;98261.63;;;28.88;40.77
6532;BME280;3299;42.004;24.868;2023-09-19T13:39:13;98259.44;;;28.85;40.24
6532;BME280;3299;42.004;24.868;2023-09-19T13:41:40;98251.06;;;28.63;40.44
6532;BME280;3299;42.004;24.868;2023-09-19T13:44:06;98237.16;;;28.61;40.63
6532;BME280;3299;42.004;24.868;2023-09-19T13:46:31;98242.41;;;28.68;40.15
6532;BME280;3299;42.004;24.868;2023-09-19T13:49:00;98235.25;;;28.50;40.80
6532;BME280;3299;42.004;24.868;2023-09-19T13:51:29;98258.84;;;28.65;40.72
6532;BME280;3299;42.004;24.868;2023-09-19T13:53:55;98238.78;;;28.62;40.37
6532;BME280;3299;42.004;24.868;2023-09-19T13:56:20;98236.72;;;28.64;40.39
6532;BME280;3299;42.004;24.868;2023-09-19T13:58:46;98235.44;;;28.67;40.03
6532;BME280;3299;42.004;24.868;2023-09-19T14:01:11;98225.41;;;28.69;39.35
6532;BME280;3299;42.004;24.868;2023-09-19T14:03:41;98247.25;;;28.89;39.44
6532;BME280;3299;42.004;24.868;2023-09-19T14:06:18;98248.66;;;28.91;39.57
6532;BME280;3299;42.004;24.868;2023-09-19T14:08:44;98229.69;;;28.70;39.89
6532;BME280;3299;42.004;24.868;2023-09-19T14:11:13;98237.47;;;28.71;41.26
6532;BME280;3299;42.004;24.868;2023-09-19T14:13:39;98235.09;;;28.63;42.12
6532;BME280;3299;42.004;24.868;2023-09-19T14:16:06;98235.97;;;28.57;41.68
6532;BME280;3299;42.004;24.868;2023-09-19T14:18:32;98206.63;;;28.46;42.30
6532;BME280;3299;42.004;24.868;2023-09-19T14:20:58;98199.69;;;28.45;40.60
6532;BME280;3299;42.004;24.868;2023-09-19T14:23:23;98222.97;;;28.67;40.27
6532;BME280;3299;42.004;24.868;2023-09-19T14:25:50;98206.69;;;28.39;40.58
6532;BME280;3299;42.004;24.868;2023-09-19T14:28:17;98221.78;;;28.45;41.72
6532;BME280;3299;42.004;24.868;2023-09-19T14:30:42;98191.53;;;28.22;41.79
6532;BME280;3299;42.004;24.868;2023-09-19T14:33:07;98221.91;;;28.32;41.16
6532;BME280;3299;42.004;24.868;2023-09-19T14:35:33;98188.19;;;28.08;41.21
6532;BME280;3299;42.004;24.868;2023-09-19T14:37:58;98211.84;;;28.16;41.64